Flag for Switzerland

Past Weather in 47°33'51.5"N, 7°35'56.7"E, Switzerland — Yesterday and Last 2 Weeks

Currently: 67 °F. Overcast. (Weather station: Bale-Mulhouse, Switzerland). See more current weather

Past Weather in 47°33'51.5"N, 7°35'56.7"E — Graph

°F

47°33'51.5"N, 7°35'56.7"E Temperature Yesterday

Maximum temperature yesterday: 85 °F (at 2:00 pm)
Minimum temperature yesterday: 58 °F (at 4:00 am)
Average temperature yesterday: 71 °F

High & Low Weather Summary for the Past Weeks

 TemperatureHumidityPressure
High91 °F (Jul 9, 6:00 pm)99% (Jul 14, 6:00 am)30.08 "Hg (Jul 14, 6:00 am)
Low53 °F (Jul 14, 5:00 am)36% (Jul 9, 6:00 pm)29.74 "Hg (Jul 6, 10:00 am)
Average68 °F77%29.95 "Hg
* Reported Jul 1 10:00 am — Jul 16 10:00 am, 47°33'51.5"N, 7°35'56.7"E. Weather by CustomWeather, © 2024

Note: Actual official high and low records may vary slightly from our data, if they occured in-between our weather recording intervals... More about our weather records

47°33'51.5"N, 7°35'56.7"E Weather History for the Previous 24 Hours

Scroll right to see more
 ConditionsComfort  
Time TempWeatherWind HumidityBarometerVisibility
10:00 am
Tue, Jul 16
67 °FOvercast.6 mph79%30.03 "Hg22 mi
9:00 am69 °FOvercast.7 mph75%30.02 "Hg28 mi
8:00 am67 °FPartly sunny.7 mph87%30.00 "Hg25 mi
7:00 am64 °FMild.8 mph94%29.99 "Hg4 mi
6:00 am63 °FMild.5 mph96%29.98 "Hg5 mi
5:00 am65 °FOvercast.3 mph96%29.96 "Hg12 mi
4:00 am67 °FLow clouds.6 mph95%29.94 "Hg10 mi
3:00 am67 °FOvercast.1 mph96%29.93 "Hg9 mi
2:00 am67 °FOvercast.3 mph96%29.94 "Hg12 mi
1:00 am65 °FMild.5 mph97%29.93 "Hg11 mi
12:00 am65 °FMild.2 mph95%29.93 "Hg9 mi
11:00 pm
Mon, Jul 15
67 °FMild.3 mph92%29.91 "Hg22 mi
10:00 pm69 °FOvercast.5 mph87%29.90 "Hg25 mi
9:00 pm68 °FRain. Overcast.8 mph92%29.89 "Hg22 mi
8:00 pm80 °FOvercast.2 mph58%29.78 "Hg22 mi
7:00 pm81 °FOvercast.3 mph57%29.75 "Hg22 mi
6:00 pm82 °FLow clouds.3 mph56%29.77 "Hg25 mi
5:00 pm81 °FOvercast.7 mph59%29.77 "Hg31 mi
4:00 pm82 °FOvercast.7 mph56%29.79 "Hg22 mi
3:00 pm84 °FOvercast.9 mph51%29.80 "Hg25 mi
2:00 pm85 °FPartly sunny.8 mph50%29.80 "Hg25 mi
1:00 pm83 °FWarm.8 mph55%29.83 "Hg22 mi
12:00 pm80 °FWarm.3 mph54%29.85 "Hg22 mi
11:00 am78 °FWarm.2 mph58%29.87 "Hg19 mi
Weather by CustomWeather, © 2024

See weather overview